Thu 2017-08-17 20:01
Local weather stations in Arizona
KCGZ
Casa_Grande_Muni_Airport
Casa Grande, Casa Grande Municipal Airport, AZ, United States (KCGZ) 32-57N 111-46W
Aug 17, 2017 - 10:56 PM EDT / 2017.08.18 0256 UTC
Wind: from the NNE (020 degrees) at 8 MPH (7 KT):0
Visibility: 10 mile(s):0
Sky conditions: clear
Temperature: 89.1 F (31.7 C)
Dew Point: 46.0 F (7.8 C)
Relative Humidity: 22%
Pressure (altimeter): 29.9 in. Hg (1012 hPa)
Pressure tendency: 0.02 inches (0.7 hPa) higher than three hours ago
ob: KCGZ 180256Z AUTO 02007KT 10SM CLR 32/08 A2990 RMK AO2 SLP109 6//// T03170078 53007 
cycle: 3
KRYN
Tucson/Ryan_Field
Station name not available
Aug 17, 2017 - 10:45 PM EDT / 2017.08.18 0245 UTC
Wind: from the SW (230 degrees) at 6 MPH (5 KT):0
Visibility: 10 mile(s):0
Sky conditions: clear
Temperature: 89 F (32 C)
Dew Point: 35 F (2 C)
Relative Humidity: 14%
Pressure (altimeter): 29.98 in. Hg (1015 hPa)
ob: KRYN 180245Z 23005KT 10SM CLR 32/02 A2998 RMK LAST 
cycle: 3
KDMA
Tucson/Davis-Monthan-AFB
Davis-Monthan Air Force Base, AZ, United States (KDMA) 32-10N 110-53W
Aug 17, 2017 - 10:58 PM EDT / 2017.08.18 0258 UTC
Wind: from the NNE (020 degrees) at 5 MPH (4 KT):0
Visibility: 10 mile(s):0
Sky conditions: clear
Temperature: 88.5 F (31.4 C)
Dew Point: 36.5 F (2.5 C)
Relative Humidity: 15%
Pressure (altimeter): 29.98 in. Hg (1015 hPa)
Pressure tendency: 0.01 inches (0.5 hPa) higher than three hours ago
ob: KDMA 180258Z AUTO 02004KT 10SM CLR 31/03 A2998 RMK AO2 SLP106 T03140025 52005 
cycle: 3
KOLS
Nogales-Intl_Airport
NOGALES INTERNATIONAL AIRPORT , AZ, United States (KOLS) 31-25N 110-51W 1184M
Aug 17, 2017 - 10:54 PM EDT / 2017.08.18 0254 UTC
Wind: from the ENE (070 degrees) at 6 MPH (5 KT):0
Visibility: 10 mile(s):0
Sky conditions: clear
Temperature: 75.9 F (24.4 C)
Dew Point: 44.1 F (6.7 C)
Relative Humidity: 32%
Pressure (altimeter): 30.1 in. Hg (1019 hPa)
Pressure tendency: 0.01 inches (0.4 hPa) higher than three hours ago
ob: KOLS 180254Z AUTO 07005KT 10SM CLR 24/07 A3010 RMK AO2 SLP126 T02440067 53004
cycle: 3
KFHU
Fort-Huachuca
Fort Huachuca, Libby AAF Ft Huachuca, AZ, United States (KFHU) 46-98N 110-20W
Aug 17, 2017 - 10:58 PM EDT / 2017.08.18 0258 UTC
Wind: from the SW (220 degrees) at 13 MPH (11 KT):0
Visibility: 10 mile(s):0
Sky conditions: clear
Temperature: 77.9 F (25.5 C)
Dew Point: 32.4 F (0.2 C)
Relative Humidity: 18%
Pressure (altimeter): 30.17 in. Hg (1021 hPa)
Pressure tendency: 0.01 inches (0.5 hPa) higher than three hours ago
ob: KFHU 180258Z AUTO 22011KT 10SM CLR 26/00 A3017 RMK AO2 SLP141 T02550002 52005
cycle: 3
KSAD
Safford
SAFFORD MUNICIPAL AIRPORT, AZ, United States (KSAD) 32-51N 109-38W 962M
Aug 17, 2017 - 10:51 PM EDT / 2017.08.18 0251 UTC
Wind: from the NW (310 degrees) at 9 MPH (8 KT):0
Visibility: 10 mile(s):0
Sky conditions: clear
Temperature: 84.9 F (29.4 C)
Dew Point: 42.1 F (5.6 C)
Relative Humidity: 22%
Pressure (altimeter): 29.99 in. Hg (1015 hPa)
Pressure tendency: 0.02 inches (0.8 hPa) higher than three hours ago
ob: KSAD 180251Z AUTO 31008KT 10SM CLR 29/06 A2999 RMK AO2 SLP103 T02940056 53008
cycle: 3
KGBN
Gila_Bend
Gila Bend U. S. Army Airfield, AZ, United States (KGBN) 32-26N 112-41W 261M
Jul 20, 2017 - 10:57 AM EDT / 2017.07.20 1457 UTC
Wind: Calm:0
Visibility: 10 mile(s):0
Sky conditions: partly cloudy
Temperature: 86 F (30 C)
Dew Point: 68 F (20 C)
Relative Humidity: 55%
Pressure (altimeter): 29.97 in. Hg (1014 hPa)
ob: KGBN 201457Z 00000KT 10SM FEW100 SCT150 30/20 A2997 RMK A02 NO SLP
cycle: 15
KYUM
Yuma_Intl
Yuma / Yuma International, AZ, United States (KYUM) 32-39N 114-36W 63M
Nov 07, 2008 - 06:20 AM EST / 2008.11.07 1120 UTC
Wind: from the N (010 degrees) at 7 MPH (6 KT):0
Sky conditions: clear
ob: KYUM 071120Z 0712/0812 01006KT P6SM SKC FM071700 02012KT P6SM SKC FM080100 33005KT P6SM SKC
cycle: 11
KPHX
Phoenix
Phoenix, Phoenix Sky Harbor International Airport, AZ, United States (KPHX) 33-26-03N 112-03-04W 336M
Aug 17, 2017 - 10:51 PM EDT / 2017.08.18 0251 UTC
Wind: from the NE (050 degrees) at 7 MPH (6 KT):0
Visibility: 10 mile(s):0
Sky conditions: mostly clear
Temperature: 99.0 F (37.2 C)
Dew Point: 27.0 F (-2.8 C)
Relative Humidity: 7%
Pressure (altimeter): 29.85 in. Hg (1010 hPa)
Pressure tendency: 0.01 inches (0.4 hPa) higher than three hours ago
ob: KPHX 180251Z 05006KT 10SM FEW120 37/M03 A2985 RMK AO2 SLP087 T03721028 53004
cycle: 3
KPRC
Prescott_LoveField
PRESCOTT LOVE FIELD, AZ, United States (KPRC) 34-39N 112-25W 1524M
Aug 17, 2017 - 10:53 PM EDT / 2017.08.18 0253 UTC
Wind: from the SSW (210 degrees) at 6 MPH (5 KT):0
Visibility: 10 mile(s):0
Sky conditions: clear
Temperature: 73.9 F (23.3 C)
Dew Point: 39.9 F (4.4 C)
Relative Humidity: 29%
Pressure (altimeter): 30.18 in. Hg (1022 hPa)
Pressure tendency: 0.02 inches (0.6 hPa) higher than three hours ago
ob: KPRC 180253Z 21005KT 10SM CLR 23/04 A3018 RMK AO2 SLP141 T02330044 53006
cycle: 3
KGCN
Grand_Canyon
GRAND CANYON NATL PARK AIRPORT , AZ, United States (KGCN) 35-57N 112-09W 2016M
Aug 17, 2017 - 10:54 PM EDT / 2017.08.18 0254 UTC
Wind: Calm:0
Visibility: 10 mile(s):0
Sky conditions: clear
Temperature: 61.0 F (16.1 C)
Dew Point: 36.0 F (2.2 C)
Relative Humidity: 39%
Pressure (altimeter): 30.3 in. Hg (1026 hPa)
Pressure tendency: 0.02 inches (0.7 hPa) higher than three hours ago
ob: KGCN 180254Z 00000KT 10SM CLR 16/02 A3030 RMK AO2 SLP171 T01610022 53007
cycle: 3
KINW
Winslow
WINSLOW MUNICIPAL AIRPORT, AZ, United States (KINW) 35-02N 110-43W 1490M
Aug 17, 2017 - 10:56 PM EDT / 2017.08.18 0256 UTC
Wind: from the SW (230 degrees) at 9 MPH (8 KT):0
Visibility: 10 mile(s):0
Sky conditions: clear
Temperature: 77.0 F (25.0 C)
Dew Point: 34.0 F (1.1 C)
Relative Humidity: 20%
Pressure (altimeter): 30.14 in. Hg (1020 hPa)
Pressure tendency: 0.03 inches (0.9 hPa) higher than three hours ago
ob: KINW 180256Z AUTO 23008KT 10SM CLR 25/01 A3014 RMK AO2 SLP136 T02500011 53009
cycle: 3
KIFP
Bullhead_City
Bullhead City, Laughlin/Bullhead International Airport, AZ, United States (KIFP) 35-09-27N 114-33-34W
Aug 17, 2017 - 10:35 PM EDT / 2017.08.18 0235 UTC
Wind: from the SSW (210 degrees) at 5 MPH (4 KT):0
Visibility: 10 mile(s):0
Sky conditions: clear
Temperature: 100 F (38 C)
Dew Point: 35 F (2 C)
Relative Humidity: 10%
Pressure (altimeter): 29.81 in. Hg (1009 hPa)
ob: KIFP 180235Z AUTO 21004KT 10SM CLR 38/02 A2981 RMK AO2
cycle: 2
43 seconds elapsed
Crontab entry: 1,16,31,46 * * * * /var/www/html/area/area.sh >/dev/null
To get a list of weather stations please use this URL:
    http://weather.rap.ucar.edu/surface/stations.txt